createdAt,value
2023-03-07T00:01:26.695Z,3.70
2023-03-07T00:04:00.742Z,3.60
2023-03-07T00:06:35.146Z,3.60
2023-03-07T00:09:08.506Z,3.60
2023-03-07T00:11:41.516Z,3.50
2023-03-07T00:14:14.498Z,3.50
2023-03-07T00:16:47.623Z,3.50
2023-03-07T00:19:20.804Z,3.50
2023-03-07T00:21:55.343Z,3.40
2023-03-07T00:24:28.395Z,3.50
2023-03-07T00:27:03.877Z,3.50
2023-03-07T00:29:36.988Z,3.40
2023-03-07T00:32:10.137Z,3.50
2023-03-07T00:34:43.229Z,3.50
2023-03-07T00:37:17.687Z,3.50
2023-03-07T00:39:50.787Z,3.40
2023-03-07T00:42:23.946Z,3.40
2023-03-07T00:44:57.058Z,3.40
2023-03-07T00:47:30.131Z,3.30
2023-03-07T00:50:04.290Z,3.30
2023-03-07T00:52:38.734Z,3.30
2023-03-07T00:55:12.110Z,3.30
2023-03-07T00:57:45.234Z,3.30
2023-03-07T01:00:18.795Z,3.30
2023-03-07T01:02:52.522Z,3.20
2023-03-07T01:05:25.711Z,3.30
2023-03-07T01:08:00.943Z,3.30
2023-03-07T01:10:34.517Z,3.30
2023-03-07T01:13:08.152Z,3.30
2023-03-07T01:15:41.309Z,3.30
2023-03-07T01:18:14.461Z,3.30
2023-03-07T01:20:47.665Z,3.30
2023-03-07T01:23:22.106Z,3.20
2023-03-07T01:25:55.224Z,3.30
2023-03-07T01:28:28.388Z,3.30
2023-03-07T01:31:02.646Z,3.40
2023-03-07T01:33:35.771Z,3.30
2023-03-07T01:36:18.964Z,3.30
2023-03-07T01:38:56.233Z,3.30
2023-03-07T01:41:32.198Z,3.30
2023-03-07T01:44:16.424Z,3.30
2023-03-07T01:46:53.154Z,3.30
2023-03-07T01:49:30.864Z,3.30
2023-03-07T01:52:08.648Z,3.30
2023-03-07T01:54:49.027Z,3.30
2023-03-07T01:57:25.825Z,3.40
2023-03-07T02:00:06.982Z,3.40
2023-03-07T02:02:42.528Z,3.40
2023-03-07T02:05:21.651Z,3.40
2023-03-07T02:07:57.245Z,3.40
2023-03-07T02:10:34.142Z,3.40
2023-03-07T02:13:07.337Z,3.30
2023-03-07T02:15:40.758Z,3.40
2023-03-07T02:18:17.786Z,3.40
2023-03-07T02:21:00.936Z,3.40
2023-03-07T02:23:45.435Z,3.40
2023-03-07T02:26:26.631Z,3.40
2023-03-07T02:29:02.680Z,3.40
2023-03-07T02:31:35.720Z,3.40
2023-03-07T02:34:21.095Z,3.40
2023-03-07T02:36:59.639Z,3.30
2023-03-07T02:39:33.121Z,3.40
2023-03-07T02:42:13.619Z,3.40
2023-03-07T02:44:48.911Z,3.50
2023-03-07T02:47:22.005Z,3.50
2023-03-07T02:49:55.670Z,3.50
2023-03-07T02:52:29.832Z,3.40
2023-03-07T02:55:03.357Z,3.50
2023-03-07T02:57:36.985Z,3.60
2023-03-07T03:00:14.093Z,3.60
2023-03-07T03:02:47.293Z,3.80
2023-03-07T03:05:20.350Z,3.70
2023-03-07T03:07:53.725Z,3.80
2023-03-07T03:10:26.755Z,3.70
2023-03-07T03:12:59.857Z,3.60
2023-03-07T03:15:34.258Z,3.40
2023-03-07T03:18:07.390Z,3.40
2023-03-07T03:20:40.946Z,3.30
2023-03-07T03:23:14.144Z,3.30
2023-03-07T03:25:47.303Z,3.30
2023-03-07T03:28:20.867Z,3.40
2023-03-07T03:31:04.904Z,3.40
2023-03-07T03:33:39.312Z,3.40
2023-03-07T03:36:15.837Z,3.30
2023-03-07T03:38:49.421Z,3.30
2023-03-07T03:41:22.522Z,3.30
2023-03-07T03:43:55.599Z,3.30
2023-03-07T03:46:30.060Z,3.20
2023-03-07T03:49:03.438Z,3.30
2023-03-07T03:51:36.484Z,3.30
2023-03-07T03:54:09.808Z,3.30
2023-03-07T03:56:42.882Z,3.30
2023-03-07T03:59:16.101Z,3.30
2023-03-07T04:01:50.734Z,3.30
2023-03-07T04:04:24.199Z,3.30
2023-03-07T04:06:57.268Z,3.30
2023-03-07T04:09:30.311Z,3.30
2023-03-07T04:12:03.587Z,3.40
2023-03-07T04:14:36.632Z,3.40
2023-03-07T04:17:11.032Z,3.40
2023-03-07T04:19:44.077Z,3.40
2023-03-07T04:22:17.082Z,3.40
2023-03-07T04:24:50.097Z,3.50
2023-03-07T04:27:23.138Z,3.70
2023-03-07T04:29:56.217Z,3.60
2023-03-07T04:32:30.694Z,3.50
2023-03-07T04:35:03.780Z,3.60
2023-03-07T04:37:36.798Z,3.70
2023-03-07T04:40:11.673Z,3.70
2023-03-07T04:42:44.712Z,3.80
2023-03-07T04:45:17.967Z,4.00
2023-03-07T04:47:52.343Z,3.90
2023-03-07T04:50:25.425Z,3.80
2023-03-07T04:52:58.599Z,3.80
2023-03-07T04:55:31.701Z,3.80
2023-03-07T04:58:04.751Z,3.70
2023-03-07T05:00:37.795Z,3.60
2023-03-07T05:03:14.195Z,3.60
2023-03-07T05:05:47.213Z,3.50
2023-03-07T05:08:20.495Z,3.60
2023-03-07T05:10:53.492Z,3.90
2023-03-07T05:13:26.806Z,3.80
2023-03-07T05:16:00.986Z,3.70
2023-03-07T05:18:35.356Z,3.60
2023-03-07T05:21:08.539Z,3.60
2023-03-07T05:23:41.718Z,3.60
2023-03-07T05:26:14.742Z,3.50
2023-03-07T05:28:48.201Z,3.70
2023-03-07T05:31:21.220Z,3.60
2023-03-07T05:33:55.928Z,3.60
2023-03-07T05:36:29.458Z,3.60
2023-03-07T05:39:03.548Z,3.60
2023-03-07T05:41:36.586Z,3.60
2023-03-07T05:44:09.869Z,3.60
2023-03-07T05:46:42.853Z,3.80
2023-03-07T05:49:17.206Z,3.80
2023-03-07T05:51:50.208Z,3.90
2023-03-07T05:54:23.264Z,3.90
2023-03-07T05:56:56.303Z,3.80
2023-03-07T05:59:29.320Z,4.00
2023-03-07T06:02:02.317Z,3.90
2023-03-07T06:04:36.695Z,3.90
2023-03-07T06:07:09.661Z,3.80
2023-03-07T06:09:42.662Z,3.80
2023-03-07T06:12:15.761Z,3.90
2023-03-07T06:14:48.765Z,3.90
2023-03-07T06:17:21.801Z,3.90
2023-03-07T06:19:56.281Z,3.80
2023-03-07T06:22:31.773Z,3.90
2023-03-07T06:25:05.293Z,3.90
2023-03-07T06:27:40.214Z,3.90
2023-03-07T06:30:14.629Z,4.00
2023-03-07T06:32:47.647Z,3.90
2023-03-07T06:35:22.346Z,4.00
2023-03-07T06:37:55.411Z,4.00
2023-03-07T06:40:28.421Z,4.00
2023-03-07T06:43:01.480Z,4.00
2023-03-07T06:45:34.994Z,4.00
2023-03-07T06:48:08.140Z,4.00
2023-03-07T06:50:42.495Z,4.00
2023-03-07T06:53:16.033Z,3.90
2023-03-07T06:55:50.901Z,4.00
2023-03-07T06:58:24.040Z,3.90
2023-03-07T07:00:57.085Z,4.00
2023-03-07T07:03:30.407Z,4.10
2023-03-07T07:06:04.949Z,4.00
2023-03-07T07:08:38.678Z,4.10
2023-03-07T07:11:12.474Z,4.00
2023-03-07T07:13:45.845Z,4.10
2023-03-07T07:16:19.720Z,4.10
2023-03-07T07:18:53.019Z,4.10
2023-03-07T07:21:27.366Z,4.10
2023-03-07T07:24:00.458Z,4.10
2023-03-07T07:26:33.466Z,4.30
2023-03-07T07:29:06.526Z,4.40
2023-03-07T07:31:39.641Z,4.40
2023-03-07T07:34:13.123Z,4.50
2023-03-07T07:36:47.453Z,4.40
2023-03-07T07:39:21.748Z,4.40
2023-03-07T07:41:54.889Z,4.50
2023-03-07T07:44:31.449Z,4.60
2023-03-07T07:47:04.685Z,4.60
2023-03-07T07:49:37.716Z,4.60
2023-03-07T07:52:12.059Z,4.60
2023-03-07T07:54:45.096Z,4.80
2023-03-07T07:57:18.121Z,4.80
2023-03-07T07:59:51.082Z,4.90
2023-03-07T08:02:24.436Z,5.00
2023-03-07T08:04:57.510Z,5.10
2023-03-07T08:07:31.864Z,5.20
2023-03-07T08:10:06.123Z,5.20
2023-03-07T08:12:39.127Z,5.50
2023-03-07T08:15:13.625Z,5.40
2023-03-07T08:17:46.778Z,5.40
2023-03-07T08:20:22.398Z,5.30
2023-03-07T08:22:56.846Z,5.60
2023-03-07T08:25:29.928Z,5.70
2023-03-07T08:28:05.060Z,5.60
2023-03-07T08:30:38.709Z,5.60
2023-03-07T08:33:11.735Z,5.70
2023-03-07T08:35:44.724Z,5.70
2023-03-07T08:38:19.161Z,5.80
2023-03-07T08:40:52.165Z,5.90
2023-03-07T08:43:25.226Z,6.00
2023-03-07T08:45:59.128Z,6.10
2023-03-07T08:48:32.448Z,6.10
2023-03-07T08:51:07.463Z,6.10
2023-03-07T08:53:43.049Z,6.20
2023-03-07T08:56:18.483Z,6.50
2023-03-07T08:58:54.501Z,6.60
2023-03-07T09:01:27.664Z,6.70
2023-03-07T09:04:00.711Z,6.70
2023-03-07T09:06:33.719Z,6.80
2023-03-07T09:09:08.092Z,6.80
2023-03-07T09:11:41.170Z,7.00
2023-03-07T09:14:14.157Z,7.10
2023-03-07T09:16:47.130Z,6.90
2023-03-07T09:19:20.157Z,7.00
2023-03-07T09:21:53.146Z,7.20
2023-03-07T09:24:27.620Z,7.50
2023-03-07T09:27:00.636Z,7.70
2023-03-07T09:29:33.706Z,7.60
2023-03-07T09:32:07.208Z,7.50
2023-03-07T09:34:40.610Z,7.60
2023-03-07T09:37:13.676Z,7.70
2023-03-07T09:39:50.258Z,7.70
2023-03-07T09:42:29.761Z,7.50
2023-03-07T09:45:21.841Z,7.60
2023-03-07T09:48:37.131Z,7.50
2023-03-07T09:51:18.387Z,7.40
2023-03-07T09:53:55.026Z,7.10
2023-03-07T09:56:34.210Z,6.90
2023-03-07T09:59:22.806Z,7.00
2023-03-07T10:02:06.298Z,6.90
2023-03-07T10:04:47.032Z,7.00
2023-03-07T10:07:25.817Z,6.90
2023-03-07T10:10:02.930Z,7.00
2023-03-07T10:12:54.495Z,7.00
2023-03-07T10:15:45.577Z,7.10
2023-03-07T10:18:46.839Z,7.10
2023-03-07T10:21:27.894Z,7.00
2023-03-07T10:24:37.434Z,7.10
2023-03-07T10:27:12.826Z,7.20
2023-03-07T10:29:50.771Z,6.90
2023-03-07T10:32:32.128Z,6.80
2023-03-07T10:35:19.126Z,6.80
2023-03-07T10:37:55.691Z,6.80
2023-03-07T10:40:35.703Z,6.50
2023-03-07T10:43:23.700Z,6.50
2023-03-07T10:46:22.344Z,6.60
2023-03-07T10:49:10.223Z,6.60
2023-03-07T10:51:54.946Z,7.00
2023-03-07T10:54:32.325Z,6.90
2023-03-07T10:57:10.097Z,7.00
2023-03-07T10:59:44.880Z,6.80
2023-03-07T11:02:35.975Z,6.70
2023-03-07T11:05:31.102Z,6.70
2023-03-07T11:08:27.878Z,6.60
2023-03-07T11:11:03.199Z,6.50
2023-03-07T11:13:36.228Z,6.40
2023-03-07T11:16:18.171Z,6.50
2023-03-07T11:18:52.601Z,6.50
2023-03-07T11:21:31.288Z,6.40
2023-03-07T11:24:07.544Z,6.40
2023-03-07T11:26:42.576Z,6.40
2023-03-07T11:29:16.100Z,6.50
2023-03-07T11:32:00.612Z,6.40
2023-03-07T11:34:42.400Z,6.40
2023-03-07T11:37:29.126Z,6.40
2023-03-07T11:40:23.304Z,6.30
2023-03-07T11:43:07.508Z,6.50
2023-03-07T11:45:51.123Z,6.60
2023-03-07T11:48:43.210Z,6.70
2023-03-07T11:51:35.726Z,6.60
2023-03-07T11:54:20.923Z,6.60
2023-03-07T11:57:04.994Z,6.60
2023-03-07T12:00:01.981Z,6.70
2023-03-07T12:03:08.894Z,6.60
2023-03-07T12:06:09.488Z,6.50
2023-03-07T12:08:57.070Z,6.20
2023-03-07T12:11:48.768Z,6.30
2023-03-07T12:14:33.622Z,6.10
2023-03-07T12:17:22.002Z,6.00
2023-03-07T12:20:31.848Z,5.90
2023-03-07T12:23:15.471Z,5.90
2023-03-07T12:25:54.984Z,6.00
2023-03-07T12:28:33.528Z,6.00
2023-03-07T12:31:12.118Z,6.00
2023-03-07T12:33:55.398Z,6.10
2023-03-07T12:36:35.671Z,6.10
2023-03-07T12:39:19.872Z,6.10
2023-03-07T12:42:06.002Z,6.00
2023-03-07T12:44:44.546Z,6.20
2023-03-07T12:47:26.446Z,6.00
2023-03-07T12:50:06.155Z,6.10
2023-03-07T12:52:44.867Z,6.10
2023-03-07T12:55:27.074Z,6.10
2023-03-07T12:58:08.850Z,6.00
2023-03-07T13:00:48.562Z,5.90
2023-03-07T13:03:35.547Z,5.90
2023-03-07T13:06:16.921Z,5.80
2023-03-07T13:08:53.089Z,6.00
2023-03-07T13:11:28.636Z,6.00
2023-03-07T13:14:03.992Z,6.20
2023-03-07T13:16:41.240Z,6.30
2023-03-07T13:19:53.980Z,6.40
2023-03-07T13:23:13.015Z,6.60
2023-03-07T13:25:57.214Z,6.80
2023-03-07T13:28:51.617Z,6.70
2023-03-07T13:31:44.202Z,6.80
2023-03-07T13:34:51.439Z,6.80
2023-03-07T13:37:54.398Z,6.60
2023-03-07T13:40:58.388Z,6.70
2023-03-07T13:43:59.669Z,6.70
2023-03-07T13:46:55.116Z,6.60
2023-03-07T13:49:49.213Z,6.50
2023-03-07T13:52:39.467Z,6.60
2023-03-07T13:55:32.920Z,6.60
2023-03-07T13:58:21.617Z,6.70
2023-03-07T14:01:00.045Z,6.80
2023-03-07T14:03:39.345Z,6.80
2023-03-07T14:06:19.136Z,6.80
2023-03-07T14:08:53.148Z,6.80
2023-03-07T14:11:34.679Z,6.80
2023-03-07T14:14:41.084Z,6.80
2023-03-07T14:17:44.568Z,6.80
2023-03-07T14:20:28.982Z,6.80
2023-03-07T14:23:21.765Z,7.00
2023-03-07T14:26:05.080Z,7.20
2023-03-07T14:28:38.205Z,7.10
2023-03-07T14:31:25.178Z,7.00
2023-03-07T14:33:59.011Z,7.10
2023-03-07T14:36:33.961Z,7.10
2023-03-07T14:39:13.192Z,7.00
2023-03-07T14:41:57.919Z,6.90
2023-03-07T14:45:12.171Z,6.80
2023-03-07T14:48:27.981Z,6.90
2023-03-07T14:51:13.881Z,7.00
2023-03-07T14:53:48.690Z,7.00
2023-03-07T14:56:25.319Z,6.80
2023-03-07T14:59:01.117Z,6.70
2023-03-07T15:01:37.870Z,6.80
2023-03-07T15:04:25.429Z,6.70
2023-03-07T15:07:01.256Z,6.60
2023-03-07T15:09:35.830Z,6.70
2023-03-07T15:12:15.691Z,6.80
2023-03-07T15:14:52.349Z,6.70
2023-03-07T15:17:29.099Z,6.70
2023-03-07T15:20:07.554Z,6.70
2023-03-07T15:22:43.824Z,6.80
2023-03-07T15:25:25.960Z,6.70
2023-03-07T15:28:01.699Z,6.70
2023-03-07T15:30:37.602Z,6.80
2023-03-07T15:33:17.921Z,6.90
2023-03-07T15:36:32.164Z,6.90
2023-03-07T15:39:28.785Z,7.00
2023-03-07T15:42:07.205Z,6.90
2023-03-07T15:44:40.257Z,6.80
2023-03-07T15:47:18.094Z,6.70
2023-03-07T15:49:54.246Z,6.80
2023-03-07T15:52:31.957Z,6.90
2023-03-07T15:55:08.543Z,6.90
2023-03-07T15:57:52.562Z,6.90
2023-03-07T16:00:33.450Z,6.80
2023-03-07T16:03:25.483Z,6.80
2023-03-07T16:06:00.951Z,6.60
2023-03-07T16:08:34.245Z,6.70
2023-03-07T16:11:08.852Z,6.60
2023-03-07T16:13:45.368Z,6.60
2023-03-07T16:16:23.569Z,6.50
2023-03-07T16:18:58.256Z,6.50
2023-03-07T16:21:31.252Z,6.60
2023-03-07T16:24:04.663Z,6.60
2023-03-07T16:26:37.660Z,6.60
2023-03-07T16:29:16.933Z,6.60
2023-03-07T16:31:50.334Z,6.50
2023-03-07T16:34:24.014Z,6.50
2023-03-07T16:36:57.350Z,6.40
2023-03-07T16:39:30.306Z,6.40
2023-03-07T16:42:04.151Z,6.50
2023-03-07T16:44:40.718Z,6.50
2023-03-07T16:47:17.093Z,6.40
2023-03-07T16:49:50.962Z,6.40
2023-03-07T16:52:25.686Z,6.40
2023-03-07T16:54:58.846Z,6.40
2023-03-07T16:57:32.042Z,6.40
2023-03-07T17:00:08.570Z,6.30
2023-03-07T17:02:41.664Z,6.30
2023-03-07T17:05:18.779Z,6.30
2023-03-07T17:07:51.945Z,6.20
2023-03-07T17:10:27.407Z,6.20
2023-03-07T17:13:02.416Z,6.10
2023-03-07T17:15:37.185Z,6.10
2023-03-07T17:18:11.935Z,6.00
2023-03-07T17:20:44.992Z,6.10
2023-03-07T17:23:21.917Z,6.10
2023-03-07T17:25:55.154Z,6.20
2023-03-07T17:28:28.224Z,6.10
2023-03-07T17:31:02.629Z,6.10
2023-03-07T17:33:35.797Z,6.00
2023-03-07T17:36:12.186Z,6.00
2023-03-07T17:38:45.358Z,6.00
2023-03-07T17:41:18.644Z,6.00
2023-03-07T17:43:51.638Z,5.90
2023-03-07T17:46:26.048Z,5.80
2023-03-07T17:48:59.075Z,5.70
2023-03-07T17:51:32.386Z,5.60
2023-03-07T17:54:08.293Z,5.60
2023-03-07T17:56:41.632Z,5.60
2023-03-07T17:59:14.649Z,5.50
2023-03-07T18:01:49.061Z,5.40
2023-03-07T18:04:22.122Z,5.40
2023-03-07T18:06:55.171Z,5.30
2023-03-07T18:09:28.538Z,5.30
2023-03-07T18:12:01.909Z,5.20
2023-03-07T18:14:34.925Z,5.20
2023-03-07T18:17:09.354Z,5.10
2023-03-07T18:19:42.346Z,5.10
2023-03-07T18:22:15.452Z,5.10
2023-03-07T18:24:48.486Z,5.10
2023-03-07T18:27:21.537Z,5.00
2023-03-07T18:29:54.545Z,5.10
2023-03-07T18:32:30.551Z,5.10
2023-03-07T18:35:03.847Z,5.10
2023-03-07T18:37:37.027Z,5.10
2023-03-07T18:40:12.714Z,5.10
2023-03-07T18:42:45.779Z,5.10
2023-03-07T18:45:18.940Z,5.10
2023-03-07T18:47:53.308Z,5.10
2023-03-07T18:50:26.483Z,5.00
2023-03-07T18:52:59.777Z,5.00
2023-03-07T18:55:34.547Z,5.00
2023-03-07T18:58:07.643Z,5.00
2023-03-07T19:00:40.711Z,5.00
2023-03-07T19:03:16.438Z,5.00
2023-03-07T19:05:51.135Z,5.00
2023-03-07T19:08:24.177Z,5.00
2023-03-07T19:10:57.360Z,5.00
2023-03-07T19:13:31.035Z,5.00
2023-03-07T19:16:06.519Z,5.10
2023-03-07T19:18:41.460Z,5.10
2023-03-07T19:21:19.008Z,5.20
2023-03-07T19:23:53.515Z,5.30
2023-03-07T19:26:26.980Z,5.30
2023-03-07T19:29:00.162Z,5.30
2023-03-07T19:31:34.970Z,5.40
2023-03-07T19:34:10.850Z,5.40
2023-03-07T19:36:44.110Z,5.40
2023-03-07T19:39:20.496Z,5.40
2023-03-07T19:41:53.584Z,5.50
2023-03-07T19:44:26.643Z,5.40
2023-03-07T19:46:59.644Z,5.50
2023-03-07T19:49:36.083Z,5.50
2023-03-07T19:52:09.287Z,5.40
2023-03-07T19:54:42.325Z,5.50
2023-03-07T19:57:16.124Z,5.60
2023-03-07T19:59:53.646Z,5.50
2023-03-07T20:02:29.381Z,5.60
2023-03-07T20:05:05.825Z,5.70
2023-03-07T20:07:38.912Z,5.70
2023-03-07T20:10:13.004Z,5.50
2023-03-07T20:12:46.051Z,5.50
2023-03-07T20:15:19.106Z,5.50
2023-03-07T20:17:52.164Z,5.50
2023-03-07T20:20:26.521Z,5.50
2023-03-07T20:23:00.387Z,5.40
2023-03-07T20:25:33.434Z,5.40
2023-03-07T20:28:06.708Z,5.40
2023-03-07T20:30:40.692Z,5.40
2023-03-07T20:33:13.858Z,5.40
2023-03-07T20:35:48.290Z,5.40
2023-03-07T20:38:21.415Z,5.30
2023-03-07T20:41:02.427Z,5.30
2023-03-07T20:43:36.170Z,5.30
2023-03-07T20:46:13.007Z,5.20
2023-03-07T20:48:47.315Z,5.20
2023-03-07T20:51:24.827Z,5.20
2023-03-07T20:53:59.804Z,5.10
2023-03-07T20:56:35.578Z,5.20
2023-03-07T20:59:11.231Z,5.10
2023-03-07T21:01:44.632Z,5.10
2023-03-07T21:04:20.544Z,5.10
2023-03-07T21:06:54.977Z,5.00
2023-03-07T21:09:28.338Z,5.00
2023-03-07T21:12:01.651Z,5.00
2023-03-07T21:14:34.997Z,5.10
2023-03-07T21:17:09.150Z,5.10
2023-03-07T21:19:42.183Z,5.20
2023-03-07T21:22:16.722Z,5.10
2023-03-07T21:24:49.755Z,5.20
2023-03-07T21:27:22.800Z,5.10
2023-03-07T21:29:55.824Z,5.10
2023-03-07T21:32:28.883Z,5.10
2023-03-07T21:35:04.165Z,5.10
2023-03-07T21:37:38.622Z,5.10
2023-03-07T21:40:13.668Z,5.10
2023-03-07T21:42:46.895Z,5.20
2023-03-07T21:45:20.294Z,5.20
2023-03-07T21:47:54.277Z,5.30
2023-03-07T21:50:27.629Z,5.30
2023-03-07T21:53:02.046Z,5.40
2023-03-07T21:55:35.060Z,5.30
2023-03-07T21:58:08.096Z,5.10
2023-03-07T22:00:41.113Z,5.10
2023-03-07T22:03:14.167Z,5.00
2023-03-07T22:05:47.345Z,4.90
2023-03-07T22:08:22.190Z,4.90
2023-03-07T22:11:00.183Z,4.80
2023-03-07T22:13:35.742Z,4.80
2023-03-07T22:16:12.881Z,4.80
2023-03-07T22:18:45.945Z,4.90
2023-03-07T22:21:21.059Z,4.80
2023-03-07T22:23:57.914Z,4.80
2023-03-07T22:26:33.183Z,4.80
2023-03-07T22:29:06.332Z,4.80
2023-03-07T22:31:39.413Z,4.70
2023-03-07T22:34:12.507Z,4.70
2023-03-07T22:36:45.585Z,4.80
2023-03-07T22:39:20.190Z,4.70
2023-03-07T22:41:53.280Z,4.70
2023-03-07T22:44:26.414Z,4.70
2023-03-07T22:46:59.767Z,4.80
2023-03-07T22:49:33.282Z,4.80
2023-03-07T22:52:06.807Z,4.70
2023-03-07T22:54:43.446Z,4.70
2023-03-07T22:57:16.577Z,4.70
2023-03-07T22:59:49.890Z,4.80
2023-03-07T23:02:22.961Z,4.90
2023-03-07T23:04:55.976Z,5.00
2023-03-07T23:07:29.027Z,4.90
2023-03-07T23:10:03.755Z,4.90
2023-03-07T23:12:36.855Z,5.00
2023-03-07T23:15:10.599Z,5.10
2023-03-07T23:17:43.634Z,5.10
2023-03-07T23:20:18.816Z,5.00
2023-03-07T23:22:51.915Z,5.00
2023-03-07T23:25:26.297Z,5.10
2023-03-07T23:27:59.357Z,5.00
2023-03-07T23:30:32.385Z,5.10
2023-03-07T23:33:05.778Z,5.10
2023-03-07T23:35:38.891Z,5.00
2023-03-07T23:38:13.820Z,5.00
2023-03-07T23:40:48.197Z,5.00
2023-03-07T23:43:21.241Z,5.00
2023-03-07T23:45:54.379Z,4.90
2023-03-07T23:48:27.615Z,5.00
2023-03-07T23:51:00.640Z,5.00
2023-03-07T23:53:33.742Z,5.00
2023-03-07T23:56:10.059Z,4.90
2023-03-07T23:58:43.866Z,4.80
